createdAt,value
2022-11-22T00:01:08.427Z,7.18
2022-11-22T00:06:10.897Z,6.96
2022-11-22T00:11:13.271Z,6.83
2022-11-22T00:16:15.734Z,6.82
2022-11-22T00:21:18.352Z,6.71
2022-11-22T00:26:21.077Z,6.83
2022-11-22T00:31:24.186Z,6.72
2022-11-22T00:36:26.830Z,6.68
2022-11-22T00:41:29.291Z,6.57
2022-11-22T00:46:31.724Z,6.55
2022-11-22T00:51:34.226Z,6.53
2022-11-22T00:56:37.020Z,6.55
2022-11-22T01:01:40.833Z,6.56
2022-11-22T01:06:43.254Z,6.58
2022-11-22T01:11:45.991Z,6.57
2022-11-22T01:16:49.151Z,6.65
2022-11-22T01:21:51.829Z,6.67
2022-11-22T01:26:54.377Z,6.69
2022-11-22T01:31:56.819Z,6.64
2022-11-22T01:36:59.274Z,6.72
2022-11-22T01:42:01.902Z,6.68
2022-11-22T01:47:25.222Z,6.70
2022-11-22T01:52:32.564Z,6.74
2022-11-22T01:57:38.087Z,6.78
2022-11-22T02:02:41.137Z,6.79
2022-11-22T02:07:53.349Z,6.73
2022-11-22T02:12:59.553Z,6.74
2022-11-22T02:18:01.968Z,6.79
2022-11-22T02:23:23.754Z,6.86
2022-11-22T02:28:28.868Z,6.82
2022-11-22T02:33:31.339Z,6.81
2022-11-22T02:38:35.542Z,6.77
2022-11-22T02:43:44.835Z,6.82
2022-11-22T02:48:52.687Z,6.85
2022-11-22T02:53:56.880Z,6.88
2022-11-22T02:58:59.397Z,6.93
2022-11-22T03:04:01.841Z,7.05
2022-11-22T03:09:04.396Z,7.00
2022-11-22T03:14:09.942Z,6.81
2022-11-22T03:19:13.065Z,6.71
2022-11-22T03:24:15.854Z,6.68
2022-11-22T03:29:19.221Z,6.66
2022-11-22T03:34:21.959Z,6.61
2022-11-22T03:39:24.393Z,6.69
2022-11-22T03:44:26.742Z,6.74
2022-11-22T03:49:29.369Z,6.83
2022-11-22T03:54:31.962Z,7.44
2022-11-22T03:59:37.082Z,7.74
2022-11-22T04:04:39.630Z,7.64
2022-11-22T04:09:45.012Z,7.58
2022-11-22T04:15:05.981Z,7.29
2022-11-22T04:20:33.801Z,7.04
2022-11-22T04:25:38.186Z,6.82
2022-11-22T04:30:59.812Z,6.69
2022-11-22T04:36:02.329Z,6.62
2022-11-22T04:41:04.719Z,6.58
2022-11-22T04:46:07.170Z,6.56
2022-11-22T04:51:32.552Z,6.49
2022-11-22T04:56:34.957Z,6.47
2022-11-22T05:01:37.388Z,6.48
2022-11-22T05:06:39.939Z,6.31
2022-11-22T05:11:42.375Z,6.16
2022-11-22T05:16:44.782Z,6.08
2022-11-22T05:21:47.220Z,6.04
2022-11-22T05:26:50.277Z,6.18
2022-11-22T05:31:52.653Z,6.36
2022-11-22T05:36:55.090Z,6.72
2022-11-22T05:42:05.928Z,6.92
2022-11-22T05:47:09.427Z,7.31
2022-11-22T05:52:11.779Z,7.46
2022-11-22T05:57:14.175Z,7.59
2022-11-22T06:02:16.646Z,7.26
2022-11-22T06:07:20.671Z,6.68
2022-11-22T06:12:26.118Z,6.50
2022-11-22T06:17:28.536Z,6.57
2022-11-22T06:22:31.468Z,6.88
2022-11-22T06:27:34.016Z,6.76
2022-11-22T06:32:36.527Z,6.69
2022-11-22T06:37:39.122Z,6.62
2022-11-22T06:42:41.520Z,6.64
2022-11-22T06:47:43.867Z,6.67
2022-11-22T06:52:52.079Z,6.68
2022-11-22T06:57:54.426Z,6.64
2022-11-22T07:02:56.820Z,6.59
2022-11-22T07:08:05.501Z,6.62
2022-11-22T07:13:12.901Z,6.80
2022-11-22T07:18:15.315Z,6.72
2022-11-22T07:23:18.055Z,6.69
2022-11-22T07:28:21.037Z,6.72
2022-11-22T07:33:23.546Z,6.75
2022-11-22T07:38:27.366Z,6.74
2022-11-22T07:43:30.096Z,6.73
2022-11-22T07:48:32.628Z,6.72
2022-11-22T07:53:35.918Z,6.65
2022-11-22T07:58:38.788Z,6.62
2022-11-22T08:03:41.719Z,6.63
2022-11-22T08:08:44.321Z,6.60
2022-11-22T08:13:46.810Z,6.60
2022-11-22T08:18:50.154Z,6.66
2022-11-22T08:23:57.241Z,6.58
2022-11-22T08:28:59.753Z,6.58
2022-11-22T08:34:02.340Z,6.63
2022-11-22T08:39:04.808Z,6.70
2022-11-22T08:44:07.326Z,6.81
2022-11-22T08:49:11.828Z,6.91
2022-11-22T08:54:15.513Z,6.95
2022-11-22T08:59:18.023Z,7.00
2022-11-22T09:04:23.190Z,7.10
2022-11-22T09:09:41.008Z,7.16
2022-11-22T09:14:43.671Z,7.40
2022-11-22T09:19:46.317Z,7.60
2022-11-22T09:24:48.774Z,7.79
2022-11-22T09:29:54.231Z,7.62
2022-11-22T09:34:59.750Z,7.55
2022-11-22T09:40:02.126Z,7.64
2022-11-22T09:45:05.692Z,7.61
2022-11-22T09:50:32.533Z,7.63
2022-11-22T09:55:39.116Z,7.70
2022-11-22T10:00:47.801Z,7.85
2022-11-22T10:05:57.364Z,7.75
2022-11-22T10:11:03.779Z,8.02
2022-11-22T10:16:22.533Z,7.95
2022-11-22T10:21:26.289Z,8.01
2022-11-22T10:26:35.283Z,8.11
2022-11-22T10:31:46.836Z,7.98
2022-11-22T10:37:01.970Z,8.05
2022-11-22T10:42:25.706Z,8.14
2022-11-22T10:47:39.272Z,8.20
2022-11-22T10:53:13.113Z,8.32
2022-11-22T10:58:39.663Z,8.42
2022-11-22T11:03:46.274Z,8.30
2022-11-22T11:14:32.434Z,8.25
2022-11-22T11:19:41.818Z,8.22
2022-11-22T11:24:44.238Z,8.22
2022-11-22T11:30:03.984Z,8.24
2022-11-22T11:35:08.872Z,8.25
2022-11-22T11:40:35.112Z,8.21
2022-11-22T11:45:37.492Z,8.33
2022-11-22T11:50:39.926Z,8.34
2022-11-22T11:55:42.379Z,8.44
2022-11-22T12:00:45.301Z,8.50
2022-11-22T12:06:14.303Z,8.55
2022-11-22T12:11:30.727Z,8.52
2022-11-22T12:16:40.297Z,8.59
2022-11-22T12:22:24.294Z,9.08
2022-11-22T12:27:36.537Z,8.99
2022-11-22T12:32:51.975Z,9.36
2022-11-22T12:37:56.507Z,9.12
2022-11-22T12:43:28.850Z,8.73
2022-11-22T12:48:38.057Z,8.65
2022-11-22T12:53:47.004Z,8.62
2022-11-22T12:59:34.271Z,8.70
2022-11-22T13:04:57.822Z,8.62
2022-11-22T13:10:12.783Z,8.52
2022-11-22T13:15:26.416Z,8.45
2022-11-22T13:20:42.743Z,8.51
2022-11-22T13:26:06.386Z,8.62
2022-11-22T13:31:11.869Z,8.62
2022-11-22T13:36:25.513Z,8.71
2022-11-22T13:41:36.464Z,8.68
2022-11-22T13:47:02.055Z,8.61
2022-11-22T13:52:25.735Z,8.68
2022-11-22T13:57:31.208Z,8.67
2022-11-22T14:02:34.064Z,8.54
2022-11-22T14:07:40.973Z,8.48
2022-11-22T14:13:10.183Z,8.49
2022-11-22T14:18:15.641Z,8.43
2022-11-22T14:23:24.119Z,8.35
2022-11-22T14:29:01.749Z,8.34
2022-11-22T14:34:21.302Z,8.23
2022-11-22T14:39:45.632Z,8.19
2022-11-22T14:44:51.882Z,8.14
2022-11-22T14:49:56.001Z,8.18
2022-11-22T14:55:06.153Z,8.24
2022-11-22T15:00:21.027Z,8.25
2022-11-22T15:09:13.164Z,8.26
2022-11-22T15:11:37.251Z,8.18
2022-11-22T16:00:43.533Z,8.02
2022-11-22T16:06:10.076Z,8.11
2022-11-22T16:11:21.298Z,8.10
2022-11-22T16:16:29.322Z,8.09
2022-11-22T16:21:32.698Z,8.15
2022-11-22T16:26:35.260Z,8.33
2022-11-22T16:31:40.000Z,8.38
2022-11-22T16:36:42.466Z,8.39
2022-11-22T16:41:44.958Z,8.36
2022-11-22T16:46:47.902Z,8.37
2022-11-22T16:51:51.467Z,8.29
2022-11-22T16:56:54.025Z,8.23
2022-11-22T17:01:56.467Z,8.22
2022-11-22T17:06:59.054Z,8.20
2022-11-22T17:12:01.772Z,8.26
2022-11-22T17:17:04.275Z,8.28
2022-11-22T17:22:09.395Z,8.22
2022-11-22T17:27:16.514Z,8.18
2022-11-22T17:32:19.868Z,8.17
2022-11-22T17:37:22.740Z,8.07
2022-11-22T17:42:25.223Z,7.95
2022-11-22T17:47:34.410Z,7.96
2022-11-22T17:52:36.804Z,7.92
2022-11-22T17:57:41.304Z,7.90
2022-11-22T18:02:44.022Z,7.87
2022-11-22T18:07:46.489Z,7.87
2022-11-22T18:13:13.523Z,7.93
2022-11-22T18:18:33.342Z,7.97
2022-11-22T18:23:36.581Z,8.00
2022-11-22T18:28:42.815Z,7.92
2022-11-22T18:33:45.251Z,8.10
2022-11-22T18:38:53.137Z,8.13
2022-11-22T18:43:57.026Z,8.13
2022-11-22T18:48:59.464Z,8.06
2022-11-22T18:54:01.904Z,7.97
2022-11-22T18:59:06.327Z,7.84
2022-11-22T19:04:13.858Z,7.87
2022-11-22T19:09:16.318Z,7.88
2022-11-22T19:14:18.718Z,7.86
2022-11-22T19:19:21.490Z,7.95
2022-11-22T19:24:24.105Z,7.93
2022-11-22T19:29:26.524Z,8.00
2022-11-22T19:34:30.168Z,8.02
2022-11-22T19:39:33.305Z,8.20
2022-11-22T19:44:38.698Z,8.28
2022-11-22T19:49:41.085Z,8.53
2022-11-22T19:54:43.490Z,8.18
2022-11-22T19:59:45.950Z,8.18
2022-11-22T20:04:48.400Z,8.24
2022-11-22T20:09:51.017Z,8.10
2022-11-22T20:14:53.696Z,7.79
2022-11-22T20:19:56.066Z,7.64
2022-11-22T20:24:59.863Z,7.65
2022-11-22T20:30:02.383Z,7.64
2022-11-22T20:35:07.773Z,7.45
2022-11-22T20:40:12.712Z,7.34
2022-11-22T20:45:15.073Z,7.21
2022-11-22T20:50:17.843Z,7.09
2022-11-22T20:55:21.456Z,7.02
2022-11-22T21:00:24.081Z,7.01
2022-11-22T21:05:29.489Z,6.93
2022-11-22T21:10:32.222Z,6.92
2022-11-22T21:15:35.052Z,6.90
2022-11-22T21:20:37.812Z,6.87
2022-11-22T21:25:40.159Z,6.86
2022-11-22T21:30:42.509Z,6.81
2022-11-22T21:35:45.824Z,6.82
2022-11-22T21:41:05.619Z,6.85
2022-11-22T21:46:18.447Z,6.79
2022-11-22T21:51:21.879Z,6.70
2022-11-22T21:56:24.703Z,6.64
2022-11-22T22:01:27.531Z,6.56
2022-11-22T22:06:30.330Z,6.51
2022-11-22T22:11:35.334Z,6.36
2022-11-22T22:16:38.131Z,6.39
2022-11-22T22:21:40.686Z,6.30
2022-11-22T22:26:43.304Z,6.23
2022-11-22T22:31:45.806Z,6.22
2022-11-22T22:36:48.552Z,6.11
2022-11-22T22:41:51.255Z,6.10
2022-11-22T22:46:53.978Z,6.15
2022-11-22T22:51:56.348Z,6.17
2022-11-22T22:56:58.676Z,6.15
2022-11-22T23:02:01.150Z,5.95
2022-11-22T23:07:03.541Z,5.82
2022-11-22T23:12:12.100Z,5.71
2022-11-22T23:17:14.743Z,5.69
2022-11-22T23:22:19.879Z,5.66
2022-11-22T23:27:24.415Z,5.63
2022-11-22T23:32:29.558Z,5.59
2022-11-22T23:37:31.939Z,5.57
2022-11-22T23:42:34.287Z,5.50
2022-11-22T23:47:36.674Z,5.38
2022-11-22T23:52:39.050Z,5.31
2022-11-22T23:57:41.601Z,5.31
